RYR43MW EVRA-EGPH
Flight info
| Callsign | RYR43MW |
|---|---|
| Flight time | N/A |
| Altitude | 36000 |
| Route | TENSI2H TENSI L73 EVONA DCT VAXIT DCT REKNA DCT ROBEM DCT AGPED AGPED1E |
| Aircraft | B738/M-SDE2E3FGHIRWXY/LB1 |
Departure
| Time | 2026-05-07 12:27 |
|---|---|
| Airport | Riga International Airport (EVRA) |
Arrival
| Time | N/A |
|---|---|
| Airport | Edinburgh Airport (EGPH) |
| Time | Latitude | Longitude | Altitude | Speed | Heading |
|---|---|---|---|---|---|
| 2026-05-07 11:56 | 56.92538 | 23.97867 | 43 ft | 0 kts | 185° |
| 2026-05-07 12:01 | 56.92539 | 23.97867 | 16 ft | 0 kts | 185° |
| 2026-05-07 12:16 | 56.92547 | 23.97868 | 43 ft | 4 kts | 185° |
| 2026-05-07 12:17 | 56.92570 | 23.97872 | 41 ft | 3 kts | 185° |
| 2026-05-07 12:17 | 56.92591 | 23.97864 | 38 ft | 4 kts | 121° |
| 2026-05-07 12:17 | 56.92597 | 23.97827 | 39 ft | 2 kts | 95° |
| 2026-05-07 12:17 | 56.92602 | 23.97784 | 41 ft | 4 kts | 124° |
| 2026-05-07 12:18 | 56.92621 | 23.97757 | 39 ft | 4 kts | 172° |
| 2026-05-07 12:18 | 56.92646 | 23.97757 | 41 ft | 3 kts | 185° |
| 2026-05-07 12:18 | 56.92650 | 23.97758 | 41 ft | 2 kts | 185° |
| 2026-05-07 12:22 | 56.92629 | 23.97754 | 42 ft | 7 kts | 186° |
| 2026-05-07 12:22 | 56.92605 | 23.97668 | 43 ft | 10 kts | 274° |
| 2026-05-07 12:22 | 56.92594 | 23.97558 | 42 ft | 9 kts | 219° |
| 2026-05-07 12:23 | 56.92531 | 23.97536 | 43 ft | 10 kts | 185° |
| 2026-05-07 12:23 | 56.92447 | 23.97523 | 43 ft | 14 kts | 185° |
| 2026-05-07 12:23 | 56.92335 | 23.97495 | 40 ft | 18 kts | 188° |
| 2026-05-07 12:23 | 56.92194 | 23.97473 | 43 ft | 22 kts | 187° |
| 2026-05-07 12:24 | 56.92032 | 23.97444 | 43 ft | 25 kts | 185° |
| 2026-05-07 12:24 | 56.91853 | 23.97426 | 42 ft | 25 kts | 185° |
| 2026-05-07 12:24 | 56.91697 | 23.97399 | 43 ft | 21 kts | 185° |
| 2026-05-07 12:24 | 56.91554 | 23.97377 | 43 ft | 20 kts | 185° |
| 2026-05-07 12:25 | 56.91425 | 23.97356 | 43 ft | 13 kts | 185° |
| 2026-05-07 12:25 | 56.91353 | 23.97325 | 43 ft | 10 kts | 215° |
| 2026-05-07 12:25 | 56.91308 | 23.97233 | 43 ft | 10 kts | 232° |
| 2026-05-07 12:25 | 56.91270 | 23.97137 | 43 ft | 9 kts | 244° |
| 2026-05-07 12:26 | 56.91251 | 23.97025 | 44 ft | 9 kts | 255° |
| 2026-05-07 12:26 | 56.91256 | 23.96939 | 45 ft | 7 kts | 335° |
| 2026-05-07 12:26 | 56.91281 | 23.96936 | 45 ft | 0 kts | 4° |
| 2026-05-07 12:27 | 56.91488 | 23.96968 | 42 ft | 65 kts | 5° |
| 2026-05-07 12:27 | 56.92164 | 23.97080 | 44 ft | 127 kts | 5° |
| 2026-05-07 12:27 | 56.93178 | 23.97241 | 323 ft | 154 kts | 5° |
| 2026-05-07 12:27 | 56.94281 | 23.97387 | 1022 ft | 162 kts | 6° |
| 2026-05-07 12:28 | 56.95399 | 23.97549 | 1833 ft | 161 kts | 7° |
| 2026-05-07 12:28 | 56.96542 | 23.97727 | 2426 ft | 172 kts | 7° |
| 2026-05-07 12:28 | 56.97820 | 23.97940 | 2688 ft | 196 kts | 8° |
| 2026-05-07 12:28 | 56.99252 | 23.98183 | 2896 ft | 216 kts | 8° |
| 2026-05-07 12:29 | 57.00835 | 23.98456 | 3109 ft | 241 kts | 8° |
| 2026-05-07 12:29 | 57.02531 | 23.98751 | 3746 ft | 247 kts | 7° |
| 2026-05-07 12:29 | 57.04249 | 23.99046 | 4555 ft | 247 kts | 5° |
| 2026-05-07 12:29 | 57.05952 | 23.98590 | 5232 ft | 256 kts | 338° |
| 2026-05-07 12:30 | 57.07396 | 23.96604 | 5881 ft | 265 kts | 311° |
| 2026-05-07 12:30 | 57.08362 | 23.93720 | 6535 ft | 273 kts | 297° |
| 2026-05-07 12:30 | 57.09162 | 23.90551 | 7309 ft | 272 kts | 295° |
| 2026-05-07 12:30 | 57.09942 | 23.87380 | 8093 ft | 272 kts | 292° |
| 2026-05-07 12:31 | 57.10276 | 23.83995 | 8932 ft | 270 kts | 270° |
| 2026-05-07 12:31 | 57.10191 | 23.80549 | 9730 ft | 271 kts | 267° |
| 2026-05-07 12:31 | 57.10082 | 23.77037 | 10315 ft | 277 kts | 267° |
| 2026-05-07 12:31 | 57.09975 | 23.73497 | 11021 ft | 278 kts | 267° |
| 2026-05-07 12:32 | 57.09876 | 23.69935 | 11675 ft | 281 kts | 267° |
| 2026-05-07 12:32 | 57.09783 | 23.66331 | 12408 ft | 282 kts | 267° |
| 2026-05-07 12:32 | 57.09696 | 23.62727 | 13165 ft | 283 kts | 266° |
| 2026-05-07 12:32 | 57.09610 | 23.59010 | 13450 ft | 302 kts | 266° |
| 2026-05-07 12:33 | 57.09425 | 23.50782 | 13838 ft | 340 kts | 266° |
| 2026-05-07 12:33 | 57.09329 | 23.46388 | 14353 ft | 346 kts | 266° |
| 2026-05-07 12:33 | 57.09228 | 23.41942 | 15019 ft | 348 kts | 266° |
| 2026-05-07 12:34 | 57.09126 | 23.37495 | 15722 ft | 349 kts | 265° |
| 2026-05-07 12:34 | 57.09024 | 23.33031 | 16407 ft | 351 kts | 265° |
| 2026-05-07 12:34 | 57.08920 | 23.28526 | 17080 ft | 353 kts | 265° |
| 2026-05-07 12:34 | 57.08816 | 23.23996 | 17729 ft | 356 kts | 265° |
| 2026-05-07 12:35 | 57.08709 | 23.19437 | 18365 ft | 358 kts | 265° |
| 2026-05-07 12:35 | 57.08600 | 23.14852 | 18917 ft | 361 kts | 265° |
| 2026-05-07 12:35 | 57.08488 | 23.10216 | 19458 ft | 363 kts | 265° |
| 2026-05-07 12:35 | 57.08375 | 23.05567 | 19999 ft | 366 kts | 265° |
| 2026-05-07 12:36 | 57.08258 | 23.00872 | 20579 ft | 368 kts | 265° |
| 2026-05-07 12:36 | 57.08143 | 22.96303 | 21146 ft | 369 kts | 265° |
| 2026-05-07 12:36 | 57.08023 | 22.91576 | 21698 ft | 371 kts | 265° |
| 2026-05-07 12:36 | 57.07900 | 22.86825 | 22225 ft | 373 kts | 265° |
| 2026-05-07 12:37 | 57.07774 | 22.82053 | 22736 ft | 375 kts | 265° |
| 2026-05-07 12:37 | 57.07645 | 22.77242 | 23245 ft | 377 kts | 265° |
| 2026-05-07 12:37 | 57.07515 | 22.72411 | 23710 ft | 379 kts | 265° |
| 2026-05-07 12:37 | 57.07382 | 22.67562 | 24121 ft | 381 kts | 265° |
| 2026-05-07 12:38 | 57.07246 | 22.62678 | 24533 ft | 383 kts | 264° |
| 2026-05-07 12:38 | 57.07107 | 22.57784 | 24924 ft | 385 kts | 264° |
| 2026-05-07 12:38 | 57.06966 | 22.52850 | 25318 ft | 387 kts | 264° |
| 2026-05-07 12:38 | 57.06823 | 22.47899 | 25710 ft | 389 kts | 264° |
| 2026-05-07 12:39 | 57.06678 | 22.42937 | 26091 ft | 390 kts | 264° |
| 2026-05-07 12:39 | 57.06530 | 22.37937 | 26490 ft | 392 kts | 264° |
| 2026-05-07 12:39 | 57.06379 | 22.32937 | 26912 ft | 392 kts | 264° |
| 2026-05-07 12:39 | 57.06365 | 22.27916 | 27277 ft | 396 kts | 270° |
| 2026-05-07 12:40 | 57.06603 | 22.22841 | 27602 ft | 400 kts | 271° |
| 2026-05-07 12:40 | 57.06884 | 22.17755 | 27924 ft | 402 kts | 272° |
| 2026-05-07 12:40 | 57.07172 | 22.12633 | 28248 ft | 404 kts | 272° |
| 2026-05-07 12:40 | 57.07456 | 22.07495 | 28554 ft | 405 kts | 271° |
| 2026-05-07 12:41 | 57.07732 | 22.02308 | 28761 ft | 409 kts | 271° |
| 2026-05-07 12:41 | 57.07994 | 21.97229 | 28999 ft | 412 kts | 271° |
| 2026-05-07 12:41 | 57.08258 | 21.91992 | 29431 ft | 410 kts | 271° |
| 2026-05-07 12:41 | 57.08517 | 21.86781 | 29975 ft | 407 kts | 271° |
| 2026-05-07 12:42 | 57.08770 | 21.81617 | 30421 ft | 404 kts | 271° |
| 2026-05-07 12:42 | 57.09014 | 21.76555 | 30778 ft | 404 kts | 270° |
| 2026-05-07 12:42 | 57.09263 | 21.71345 | 31164 ft | 401 kts | 270° |
| 2026-05-07 12:42 | 57.09505 | 21.66249 | 31546 ft | 400 kts | 270° |
| 2026-05-07 12:43 | 57.09740 | 21.61222 | 31838 ft | 400 kts | 270° |
| 2026-05-07 12:43 | 57.09977 | 21.56116 | 32131 ft | 400 kts | 270° |
| 2026-05-07 12:43 | 57.10212 | 21.51020 | 32461 ft | 399 kts | 270° |
| 2026-05-07 12:43 | 57.10444 | 21.45941 | 32810 ft | 398 kts | 270° |
| 2026-05-07 12:44 | 57.10674 | 21.40861 | 33119 ft | 397 kts | 270° |
| 2026-05-07 12:44 | 57.10901 | 21.35799 | 33399 ft | 397 kts | 270° |
| 2026-05-07 12:44 | 57.11127 | 21.30737 | 33700 ft | 397 kts | 270° |
| 2026-05-07 12:44 | 57.11350 | 21.25678 | 34021 ft | 396 kts | 270° |
| 2026-05-07 12:45 | 57.11570 | 21.20636 | 34258 ft | 395 kts | 270° |
| 2026-05-07 12:45 | 57.11789 | 21.15576 | 34467 ft | 397 kts | 270° |
| 2026-05-07 12:45 | 57.12006 | 21.10509 | 34610 ft | 398 kts | 270° |
| 2026-05-07 12:45 | 57.12221 | 21.05421 | 34789 ft | 399 kts | 270° |
| 2026-05-07 12:46 | 57.12435 | 21.00333 | 35031 ft | 398 kts | 270° |
| 2026-05-07 12:46 | 57.12642 | 20.95378 | 35213 ft | 399 kts | 270° |
| 2026-05-07 12:46 | 57.12852 | 20.90281 | 35371 ft | 400 kts | 270° |
| 2026-05-07 12:46 | 57.13061 | 20.85171 | 35557 ft | 401 kts | 270° |
| 2026-05-07 12:47 | 57.13268 | 20.80059 | 35756 ft | 400 kts | 270° |
| 2026-05-07 12:47 | 57.13472 | 20.74950 | 35940 ft | 401 kts | 270° |
| 2026-05-07 12:47 | 57.13677 | 20.69821 | 36046 ft | 403 kts | 270° |
| 2026-05-07 12:47 | 57.13879 | 20.64657 | 36050 ft | 405 kts | 270° |
| 2026-05-07 12:48 | 57.14278 | 20.54347 | 36083 ft | 401 kts | 270° |
| 2026-05-07 12:48 | 57.14666 | 20.44109 | 36069 ft | 400 kts | 270° |
| 2026-05-07 12:49 | 57.15045 | 20.33897 | 36063 ft | 399 kts | 270° |
| 2026-05-07 12:49 | 57.15416 | 20.23694 | 36069 ft | 399 kts | 270° |
| 2026-05-07 12:50 | 57.15776 | 20.13567 | 36070 ft | 399 kts | 270° |
| 2026-05-07 12:50 | 57.16131 | 20.03366 | 36072 ft | 400 kts | 270° |
| 2026-05-07 12:51 | 57.16475 | 19.93249 | 36090 ft | 401 kts | 270° |
| 2026-05-07 12:51 | 57.16714 | 19.82966 | 36091 ft | 402 kts | 269° |
| 2026-05-07 12:52 | 57.16863 | 19.72652 | 36077 ft | 403 kts | 268° |
| 2026-05-07 12:52 | 57.17008 | 19.62302 | 36085 ft | 405 kts | 268° |
| 2026-05-07 12:53 | 57.17156 | 19.51922 | 36080 ft | 406 kts | 268° |
| 2026-05-07 12:53 | 57.17303 | 19.41509 | 36080 ft | 406 kts | 268° |
| 2026-05-07 12:54 | 57.17441 | 19.31160 | 36082 ft | 407 kts | 268° |
| 2026-05-07 12:54 | 57.17573 | 19.20738 | 36083 ft | 407 kts | 269° |
| 2026-05-07 12:55 | 57.17695 | 19.10321 | 36083 ft | 406 kts | 269° |
| 2026-05-07 12:55 | 57.17808 | 18.99925 | 36083 ft | 406 kts | 269° |
| 2026-05-07 12:56 | 57.17912 | 18.89635 | 36086 ft | 405 kts | 268° |
| 2026-05-07 12:56 | 57.18008 | 18.79259 | 36089 ft | 404 kts | 268° |
| 2026-05-07 12:57 | 57.18096 | 18.68896 | 36099 ft | 404 kts | 268° |
| 2026-05-07 12:57 | 57.18174 | 18.58542 | 36087 ft | 404 kts | 269° |
| 2026-05-07 12:58 | 57.18244 | 18.48194 | 36089 ft | 404 kts | 269° |
| 2026-05-07 12:58 | 57.18306 | 18.37833 | 36088 ft | 404 kts | 268° |
| 2026-05-07 12:59 | 57.18359 | 18.27446 | 36091 ft | 405 kts | 268° |
| 2026-05-07 12:59 | 57.18404 | 18.17056 | 36093 ft | 406 kts | 268° |
| 2026-05-07 13:00 | 57.18443 | 18.06641 | 36096 ft | 406 kts | 268° |
| 2026-05-07 13:00 | 57.18469 | 17.96335 | 36073 ft | 408 kts | 268° |
| 2026-05-07 13:01 | 57.18487 | 17.85937 | 36091 ft | 408 kts | 268° |
| 2026-05-07 13:01 | 57.18497 | 17.75440 | 36091 ft | 410 kts | 268° |
| 2026-05-07 13:02 | 57.18499 | 17.64923 | 36091 ft | 411 kts | 268° |
| 2026-05-07 13:02 | 57.18492 | 17.54378 | 36094 ft | 412 kts | 268° |
| 2026-05-07 13:03 | 57.18476 | 17.43811 | 36093 ft | 412 kts | 268° |
| 2026-05-07 13:03 | 57.18452 | 17.33240 | 36093 ft | 413 kts | 268° |
| 2026-05-07 13:04 | 57.18424 | 17.24443 | 36095 ft | 413 kts | 268° |
| 2026-05-07 13:04 | 57.18383 | 17.13876 | 36095 ft | 412 kts | 268° |
| 2026-05-07 13:05 | 57.18334 | 17.03316 | 36094 ft | 412 kts | 268° |
| 2026-05-07 13:05 | 57.18276 | 16.92920 | 36094 ft | 411 kts | 268° |
| 2026-05-07 13:06 | 57.18209 | 16.82391 | 36107 ft | 410 kts | 268° |
| 2026-05-07 13:06 | 57.18133 | 16.71878 | 36093 ft | 410 kts | 268° |
| 2026-05-07 13:07 | 57.18048 | 16.61358 | 36090 ft | 410 kts | 268° |
| 2026-05-07 13:07 | 57.17954 | 16.50851 | 36088 ft | 410 kts | 268° |
| 2026-05-07 13:08 | 57.17852 | 16.40328 | 36085 ft | 410 kts | 268° |
| 2026-05-07 13:08 | 57.17741 | 16.29813 | 36077 ft | 411 kts | 268° |
| 2026-05-07 13:09 | 57.17620 | 16.19281 | 36084 ft | 411 kts | 268° |
| 2026-05-07 13:09 | 57.17492 | 16.08730 | 36079 ft | 412 kts | 268° |
| 2026-05-07 13:10 | 57.17354 | 15.98276 | 36057 ft | 413 kts | 268° |
| 2026-05-07 13:10 | 57.17207 | 15.87674 | 36067 ft | 414 kts | 268° |
| 2026-05-07 13:11 | 57.17050 | 15.77045 | 36052 ft | 416 kts | 268° |
| 2026-05-07 13:11 | 57.16884 | 15.66448 | 36049 ft | 417 kts | 268° |
| 2026-05-07 13:12 | 57.16709 | 15.55761 | 36058 ft | 418 kts | 268° |
| 2026-05-07 13:12 | 57.16522 | 15.44975 | 36050 ft | 419 kts | 268° |
| 2026-05-07 13:13 | 57.16328 | 15.34317 | 36049 ft | 419 kts | 268° |
| 2026-05-07 13:13 | 57.16124 | 15.23563 | 36049 ft | 420 kts | 268° |
| 2026-05-07 13:14 | 57.15910 | 15.12811 | 36051 ft | 420 kts | 268° |
| 2026-05-07 13:14 | 57.15687 | 15.02056 | 36051 ft | 420 kts | 268° |
| 2026-05-07 13:15 | 57.15460 | 14.91497 | 36051 ft | 419 kts | 268° |
| 2026-05-07 13:15 | 57.15219 | 14.80763 | 36050 ft | 419 kts | 268° |
| 2026-05-07 13:16 | 57.14969 | 14.70053 | 36046 ft | 418 kts | 268° |
| 2026-05-07 13:16 | 57.14712 | 14.59438 | 36053 ft | 417 kts | 268° |
| 2026-05-07 13:17 | 57.14446 | 14.48766 | 36049 ft | 417 kts | 268° |
| 2026-05-07 13:17 | 57.14171 | 14.38118 | 36048 ft | 416 kts | 268° |
| 2026-05-07 13:18 | 57.13887 | 14.27478 | 36059 ft | 416 kts | 268° |
| 2026-05-07 13:18 | 57.13594 | 14.16852 | 36050 ft | 415 kts | 268° |
| 2026-05-07 13:19 | 57.13292 | 14.06241 | 36032 ft | 414 kts | 268° |
| 2026-05-07 13:19 | 57.12987 | 13.95815 | 36054 ft | 414 kts | 267° |
| 2026-05-07 13:20 | 57.12669 | 13.85213 | 36063 ft | 415 kts | 267° |
| 2026-05-07 13:20 | 57.12340 | 13.74577 | 36060 ft | 417 kts | 267° |
| 2026-05-07 13:21 | 57.12004 | 13.63974 | 36064 ft | 418 kts | 268° |
| 2026-05-07 13:21 | 57.11654 | 13.53279 | 36063 ft | 419 kts | 267° |
| 2026-05-07 13:22 | 57.11295 | 13.42549 | 36063 ft | 420 kts | 267° |
| 2026-05-07 13:22 | 57.10927 | 13.31838 | 36064 ft | 420 kts | 267° |
| 2026-05-07 13:23 | 57.10549 | 13.21107 | 36069 ft | 420 kts | 267° |
| 2026-05-07 13:23 | 57.10162 | 13.10393 | 36076 ft | 419 kts | 267° |
| 2026-05-07 13:24 | 57.09773 | 12.99853 | 36076 ft | 418 kts | 267° |
| 2026-05-07 13:24 | 57.09374 | 12.89276 | 36077 ft | 417 kts | 267° |
| 2026-05-07 13:25 | 57.08963 | 12.78655 | 36084 ft | 416 kts | 267° |
| 2026-05-07 13:25 | 57.08545 | 12.68050 | 36086 ft | 415 kts | 267° |
| 2026-05-07 13:26 | 57.08118 | 12.57460 | 36098 ft | 415 kts | 267° |
| 2026-05-07 13:26 | 57.07683 | 12.46898 | 36110 ft | 414 kts | 267° |
| 2026-05-07 13:27 | 57.07239 | 12.36342 | 36113 ft | 414 kts | 266° |
| 2026-05-07 13:27 | 57.06786 | 12.25787 | 36108 ft | 414 kts | 266° |
| 2026-05-07 13:28 | 57.06325 | 12.15237 | 36109 ft | 414 kts | 266° |
| 2026-05-07 13:28 | 57.05858 | 12.04764 | 36106 ft | 414 kts | 266° |
| 2026-05-07 13:29 | 57.05385 | 11.94354 | 36116 ft | 415 kts | 266° |
| 2026-05-07 13:29 | 57.04896 | 11.83769 | 36122 ft | 417 kts | 266° |
| 2026-05-07 13:30 | 57.04395 | 11.73144 | 36118 ft | 418 kts | 266° |
| 2026-05-07 13:30 | 57.03883 | 11.62472 | 36115 ft | 420 kts | 266° |
| 2026-05-07 13:31 | 57.03360 | 11.51772 | 36115 ft | 421 kts | 266° |
| 2026-05-07 13:31 | 57.02828 | 11.41069 | 36115 ft | 421 kts | 266° |
| 2026-05-07 13:32 | 57.02286 | 11.30362 | 36114 ft | 421 kts | 266° |
| 2026-05-07 13:32 | 57.01736 | 11.19679 | 36114 ft | 421 kts | 266° |
| 2026-05-07 13:33 | 57.01176 | 11.08987 | 36116 ft | 420 kts | 265° |
| 2026-05-07 13:33 | 57.00618 | 10.98493 | 36116 ft | 419 kts | 265° |
| 2026-05-07 13:34 | 56.99752 | 10.82536 | 36111 ft | 418 kts | 265° |
| 2026-05-07 13:35 | 56.99169 | 10.71997 | 36108 ft | 418 kts | 265° |
| 2026-05-07 13:35 | 56.98571 | 10.61350 | 36113 ft | 417 kts | 265° |
| 2026-05-07 13:36 | 56.97971 | 10.50845 | 36106 ft | 416 kts | 265° |
| 2026-05-07 13:36 | 56.97362 | 10.40317 | 36109 ft | 416 kts | 265° |
| 2026-05-07 13:37 | 56.96742 | 10.29777 | 36101 ft | 415 kts | 265° |
| 2026-05-07 13:37 | 56.96115 | 10.19252 | 36081 ft | 415 kts | 265° |
| 2026-05-07 13:38 | 56.95477 | 10.08720 | 36096 ft | 416 kts | 265° |
| 2026-05-07 13:38 | 56.94839 | 9.98315 | 36104 ft | 417 kts | 264° |
| 2026-05-07 13:39 | 56.94179 | 9.87714 | 36088 ft | 419 kts | 264° |
| 2026-05-07 13:39 | 56.93509 | 9.77087 | 36086 ft | 421 kts | 264° |
| 2026-05-07 13:40 | 56.92827 | 9.66422 | 36084 ft | 422 kts | 264° |
| 2026-05-07 13:40 | 56.92135 | 9.55743 | 36085 ft | 423 kts | 264° |
| 2026-05-07 13:41 | 56.91432 | 9.45050 | 36081 ft | 423 kts | 264° |
| 2026-05-07 13:41 | 56.90720 | 9.34365 | 36090 ft | 423 kts | 264° |
| 2026-05-07 13:42 | 56.90001 | 9.23702 | 36084 ft | 422 kts | 264° |
| 2026-05-07 13:42 | 56.89275 | 9.13080 | 36089 ft | 420 kts | 264° |
| 2026-05-07 13:43 | 56.88542 | 9.02493 | 36088 ft | 419 kts | 263° |
| 2026-05-07 13:43 | 56.87812 | 8.92072 | 36095 ft | 418 kts | 263° |
| 2026-05-07 13:44 | 56.87067 | 8.81579 | 36095 ft | 417 kts | 263° |
| 2026-05-07 13:44 | 56.86313 | 8.71081 | 36097 ft | 416 kts | 263° |
| 2026-05-07 13:45 | 56.85552 | 8.60605 | 36096 ft | 415 kts | 263° |
| 2026-05-07 13:45 | 56.84784 | 8.50159 | 36098 ft | 415 kts | 263° |
| 2026-05-07 13:46 | 56.84007 | 8.39713 | 36106 ft | 415 kts | 263° |